createdAt,value
2019-02-09T00:02:24.040Z,30.63
2019-02-09T00:04:54.978Z,32.07
2019-02-09T00:07:27.759Z,31.10
2019-02-09T00:09:58.401Z,30.77
2019-02-09T00:12:29.829Z,30.20
2019-02-09T00:15:01.058Z,29.80
2019-02-09T00:17:32.358Z,30.17
2019-02-09T00:20:02.990Z,32.07
2019-02-09T00:22:33.720Z,30.33
2019-02-09T00:25:04.719Z,30.30
2019-02-09T00:27:35.439Z,31.40
2019-02-09T00:30:08.875Z,30.17
2019-02-09T00:32:39.819Z,30.60
2019-02-09T00:35:11.749Z,29.63
2019-02-09T00:37:42.519Z,30.30
2019-02-09T00:40:13.639Z,29.90
2019-02-09T00:42:44.220Z,30.20
2019-02-09T00:45:16.920Z,29.87
2019-02-09T00:47:47.999Z,29.67
2019-02-09T00:50:19.682Z,27.80
2019-02-09T00:52:50.419Z,26.83
2019-02-09T00:55:22.130Z,26.93
2019-02-09T00:57:52.780Z,25.87
2019-02-09T01:00:25.035Z,22.27
2019-02-09T01:02:55.800Z,21.30
2019-02-09T01:05:31.500Z,18.13
2019-02-09T01:08:02.238Z,22.07
2019-02-09T01:10:33.590Z,22.40
2019-02-09T01:13:04.825Z,21.07
2019-02-09T01:15:36.290Z,20.90
2019-02-09T01:18:07.625Z,19.00
2019-02-09T01:20:38.599Z,21.03
2019-02-09T01:23:10.099Z,16.90
2019-02-09T01:25:41.200Z,18.30
2019-02-09T01:28:12.014Z,19.07
2019-02-09T01:30:42.770Z,16.97
2019-02-09T01:33:13.545Z,16.43
2019-02-09T01:35:44.380Z,18.07
2019-02-09T01:38:15.079Z,18.50
2019-02-09T01:40:45.771Z,15.73
2019-02-09T01:43:16.393Z,16.67
2019-02-09T01:45:47.032Z,16.70
2019-02-09T01:48:18.129Z,15.63
2019-02-09T01:50:49.605Z,14.63
2019-02-09T01:53:20.750Z,12.43
2019-02-09T01:55:51.690Z,14.00
2019-02-09T01:58:22.934Z,15.40
2019-02-09T02:00:53.742Z,11.80
2019-02-09T02:03:24.439Z,10.30
2019-02-09T02:05:55.280Z,13.37
2019-02-09T02:08:26.142Z,14.03
2019-02-09T02:10:56.975Z,11.80
2019-02-09T02:13:29.118Z,15.73
2019-02-09T02:15:59.830Z,14.30
2019-02-09T02:18:30.511Z,12.50
2019-02-09T02:21:01.359Z,12.73
2019-02-09T02:23:32.122Z,16.63
2019-02-09T02:26:02.950Z,14.73
2019-02-09T02:28:33.658Z,13.37
2019-02-09T02:31:04.438Z,14.80
2019-02-09T02:33:35.098Z,17.80
2019-02-09T02:36:06.219Z,16.43
2019-02-09T02:38:37.126Z,17.13
2019-02-09T02:41:07.839Z,15.57
2019-02-09T02:43:38.656Z,16.43
2019-02-09T02:46:10.934Z,15.13
2019-02-09T02:48:41.659Z,17.43
2019-02-09T02:51:12.479Z,14.67
2019-02-09T02:53:43.258Z,16.87
2019-02-09T02:56:14.080Z,15.57
2019-02-09T02:58:44.760Z,16.37
2019-02-09T03:01:15.579Z,16.33
2019-02-09T03:03:46.343Z,19.10
2019-02-09T03:06:16.987Z,20.77
2019-02-09T03:08:47.610Z,21.47
2019-02-09T03:11:18.478Z,24.17
2019-02-09T03:13:49.140Z,22.80
2019-02-09T03:16:19.911Z,23.10
2019-02-09T03:18:50.996Z,23.07
2019-02-09T03:21:21.791Z,22.50
2019-02-09T03:23:52.540Z,21.70
2019-02-09T03:26:23.239Z,22.00
2019-02-09T03:28:53.960Z,21.00
2019-02-09T03:31:24.721Z,22.03
2019-02-09T03:33:55.418Z,23.37
2019-02-09T03:36:26.201Z,23.33
2019-02-09T03:38:56.899Z,19.43
2019-02-09T03:41:27.579Z,21.33
2019-02-09T03:43:58.399Z,20.17
2019-02-09T03:46:29.071Z,20.67
2019-02-09T03:48:59.740Z,23.67
2019-02-09T03:51:30.439Z,20.67
2019-02-09T03:54:01.550Z,19.70
2019-02-09T03:56:32.299Z,16.87
2019-02-09T03:59:03.171Z,19.30
2019-02-09T04:01:34.004Z,16.57
2019-02-09T04:04:04.973Z,15.67
2019-02-09T04:06:35.730Z,17.90
2019-02-09T04:09:09.615Z,18.03
2019-02-09T04:11:40.390Z,18.93
2019-02-09T04:14:11.151Z,16.37
2019-02-09T04:16:41.820Z,15.30
2019-02-09T04:19:12.682Z,16.50
2019-02-09T04:21:46.618Z,14.70
2019-02-09T04:24:17.476Z,14.90
2019-02-09T04:26:48.211Z,18.03
2019-02-09T04:29:18.859Z,15.93
2019-02-09T04:31:49.860Z,20.43
2019-02-09T04:34:20.393Z,21.07
2019-02-09T04:36:51.120Z,23.63
2019-02-09T04:39:21.988Z,20.80
2019-02-09T04:41:52.681Z,23.33
2019-02-09T04:44:23.460Z,22.83
2019-02-09T04:46:54.240Z,22.17
2019-02-09T04:49:25.072Z,21.93
2019-02-09T04:51:55.878Z,21.43
2019-02-09T04:54:26.700Z,19.27
2019-02-09T04:56:57.580Z,21.03
2019-02-09T04:59:28.239Z,21.27
2019-02-09T05:01:59.459Z,17.30
2019-02-09T05:04:30.281Z,16.60
2019-02-09T05:07:01.401Z,13.80
2019-02-09T05:09:32.240Z,18.93
2019-02-09T05:12:02.920Z,20.90
2019-02-09T05:14:33.735Z,21.33
2019-02-09T05:17:04.490Z,18.23
2019-02-09T05:19:35.239Z,19.57
2019-02-09T05:22:06.101Z,19.37
2019-02-09T05:24:36.906Z,20.63
2019-02-09T05:27:07.877Z,19.30
2019-02-09T05:29:38.601Z,20.80
2019-02-09T05:32:09.379Z,17.50
2019-02-09T05:34:40.091Z,20.30
2019-02-09T05:37:10.839Z,12.87
2019-02-09T05:39:41.599Z,18.53
2019-02-09T05:42:12.444Z,14.47
2019-02-09T05:44:43.190Z,17.20
2019-02-09T05:47:13.839Z,15.63
2019-02-09T05:49:44.678Z,16.63
2019-02-09T05:52:15.497Z,16.87
2019-02-09T05:54:46.300Z,15.00
2019-02-09T05:57:17.022Z,18.20
2019-02-09T05:59:47.755Z,14.97
2019-02-09T06:02:18.679Z,22.77
2019-02-09T06:04:49.361Z,18.43
2019-02-09T06:07:20.116Z,18.30
2019-02-09T06:09:50.755Z,16.17
2019-02-09T06:12:21.436Z,15.80
2019-02-09T06:14:52.921Z,15.77
2019-02-09T06:17:23.676Z,19.00
2019-02-09T06:19:54.375Z,18.30
2019-02-09T06:22:25.099Z,18.10
2019-02-09T06:24:55.839Z,20.10
2019-02-09T06:27:26.603Z,18.13
2019-02-09T06:29:57.435Z,17.67
2019-02-09T06:32:27.975Z,15.30
2019-02-09T06:34:59.098Z,14.37
2019-02-09T06:37:29.759Z,16.83
2019-02-09T06:40:00.383Z,15.33
2019-02-09T06:42:31.095Z,14.00
2019-02-09T06:45:01.892Z,14.47
2019-02-09T06:47:32.504Z,14.20
2019-02-09T06:50:02.935Z,11.37
2019-02-09T06:52:33.838Z,14.77
2019-02-09T06:55:05.365Z,13.90
2019-02-09T06:57:37.636Z,13.90
2019-02-09T07:00:13.042Z,11.10
2019-02-09T07:02:43.528Z,11.83
2019-02-09T07:05:17.934Z,12.70
2019-02-09T07:07:48.918Z,13.10
2019-02-09T07:10:22.689Z,13.80
2019-02-09T07:12:53.319Z,12.23
2019-02-09T07:15:27.389Z,13.37
2019-02-09T07:17:58.263Z,12.87
2019-02-09T07:20:28.891Z,12.83
2019-02-09T07:22:59.942Z,13.57
2019-02-09T07:25:30.499Z,12.47
2019-02-09T07:28:12.163Z,14.07
2019-02-09T07:30:43.209Z,13.73
2019-02-09T07:33:14.040Z,10.30
2019-02-09T07:35:44.710Z,13.30
2019-02-09T07:38:15.452Z,11.77
2019-02-09T07:40:46.071Z,14.20
2019-02-09T07:43:16.979Z,13.13
2019-02-09T07:45:47.559Z,13.73
2019-02-09T07:48:18.136Z,12.27
2019-02-09T07:50:48.743Z,13.43
2019-02-09T07:53:19.320Z,12.60
2019-02-09T07:55:50.472Z,12.97
2019-02-09T07:58:20.994Z,12.67
2019-02-09T08:00:51.581Z,12.30
2019-02-09T08:03:22.242Z,13.80
2019-02-09T08:05:52.735Z,13.77
2019-02-09T08:08:23.410Z,14.47
2019-02-09T08:10:54.031Z,13.60
2019-02-09T08:13:24.684Z,14.07
2019-02-09T08:15:55.345Z,13.70
2019-02-09T08:18:26.060Z,13.40
2019-02-09T08:20:56.688Z,13.40
2019-02-09T08:23:27.264Z,13.90
2019-02-09T08:25:57.831Z,14.80
2019-02-09T08:28:28.374Z,14.00
2019-02-09T08:30:58.919Z,14.73
2019-02-09T08:33:29.709Z,13.90
2019-02-09T08:36:00.480Z,11.93
2019-02-09T08:38:31.139Z,14.07
2019-02-09T08:41:01.619Z,14.07
2019-02-09T08:43:32.248Z,14.27
2019-02-09T08:46:02.926Z,14.77
2019-02-09T08:48:33.426Z,13.73
2019-02-09T08:51:09.405Z,15.00
2019-02-09T08:53:40.013Z,15.50
2019-02-09T08:56:10.720Z,13.93
2019-02-09T08:58:41.455Z,15.67
2019-02-09T09:01:12.065Z,14.87
2019-02-09T09:03:42.809Z,14.77
2019-02-09T09:06:13.362Z,14.07
2019-02-09T09:08:43.953Z,13.37
2019-02-09T09:11:14.661Z,14.67
2019-02-09T09:13:45.201Z,15.47
2019-02-09T09:16:15.980Z,15.17
2019-02-09T09:18:46.650Z,15.07
2019-02-09T09:21:17.227Z,15.03
2019-02-09T09:23:48.018Z,16.23
2019-02-09T09:26:19.003Z,15.53
2019-02-09T09:28:49.753Z,15.73
2019-02-09T09:31:20.340Z,14.33
2019-02-09T09:33:59.049Z,15.93
2019-02-09T09:36:30.157Z,18.00
2019-02-09T09:39:00.781Z,17.40
2019-02-09T09:41:31.365Z,16.87
2019-02-09T09:44:17.609Z,16.13
2019-02-09T09:46:48.470Z,15.30
2019-02-09T09:49:19.110Z,16.37
2019-02-09T09:51:49.907Z,16.63
2019-02-09T09:54:20.770Z,15.07
2019-02-09T09:56:51.379Z,15.23
2019-02-09T09:59:22.291Z,15.13
2019-02-09T10:01:52.881Z,14.43
2019-02-09T10:04:23.588Z,15.30
2019-02-09T10:06:54.162Z,13.43
2019-02-09T10:09:24.864Z,12.90
2019-02-09T10:12:01.504Z,11.70
2019-02-09T10:14:32.281Z,11.20
2019-02-09T10:17:02.864Z,10.97
2019-02-09T10:19:33.504Z,10.67
2019-02-09T10:22:04.095Z,10.53
2019-02-09T10:24:34.679Z,10.50
2019-02-09T10:27:05.169Z,9.47
2019-02-09T10:29:35.675Z,8.17
2019-02-09T10:32:09.225Z,9.80
2019-02-09T10:34:39.800Z,8.97
2019-02-09T10:37:10.314Z,9.80
2019-02-09T10:39:40.901Z,8.77
2019-02-09T10:42:11.436Z,10.97
2019-02-09T10:44:42.000Z,10.20
2019-02-09T10:47:12.733Z,9.90
2019-02-09T10:49:46.774Z,9.33
2019-02-09T10:52:19.123Z,10.63
2019-02-09T10:54:49.859Z,8.17
2019-02-09T10:57:20.379Z,8.90
2019-02-09T10:59:58.081Z,9.60
2019-02-09T11:02:28.571Z,8.90
2019-02-09T11:04:59.154Z,8.73
2019-02-09T11:07:29.774Z,8.57
2019-02-09T11:10:02.219Z,7.10
2019-02-09T11:12:32.744Z,7.47
2019-02-09T11:15:03.309Z,7.90
2019-02-09T11:17:33.953Z,6.13
2019-02-09T11:20:05.303Z,5.87
2019-02-09T11:22:36.009Z,7.27
2019-02-09T11:25:08.639Z,7.60
2019-02-09T11:27:41.353Z,6.90
2019-02-09T11:30:19.892Z,7.73
2019-02-09T11:32:50.995Z,5.53
2019-02-09T11:35:22.199Z,7.03
2019-02-09T11:38:01.175Z,6.30
2019-02-09T11:40:32.015Z,7.00
2019-02-09T11:43:04.127Z,6.40
2019-02-09T11:45:35.703Z,5.13
2019-02-09T11:48:07.134Z,6.97
2019-02-09T11:50:37.744Z,6.13
2019-02-09T11:53:08.571Z,5.83
2019-02-09T11:55:39.172Z,6.37
2019-02-09T11:58:09.936Z,6.53
2019-02-09T12:00:45.611Z,10.30
2019-02-09T12:03:16.506Z,8.07
2019-02-09T12:05:47.454Z,7.20
2019-02-09T12:08:18.296Z,6.97
2019-02-09T12:10:48.969Z,9.00
2019-02-09T12:13:19.641Z,9.17
2019-02-09T12:15:52.262Z,8.50
2019-02-09T12:18:23.360Z,8.97
2019-02-09T12:20:53.898Z,7.93
2019-02-09T12:23:24.490Z,6.87
2019-02-09T12:26:05.727Z,6.47
2019-02-09T12:28:36.348Z,8.37
2019-02-09T12:31:07.028Z,7.37
2019-02-09T12:33:37.677Z,8.00
2019-02-09T12:36:09.066Z,7.93
2019-02-09T12:38:39.804Z,6.63
2019-02-09T12:41:10.599Z,8.83
2019-02-09T12:43:42.452Z,7.57
2019-02-09T12:46:13.119Z,7.63
2019-02-09T12:48:43.820Z,7.77
2019-02-09T12:51:14.419Z,8.67
2019-02-09T12:53:45.056Z,7.00
2019-02-09T12:56:15.660Z,6.73
2019-02-09T12:58:46.210Z,6.60
2019-02-09T13:01:16.977Z,7.30
2019-02-09T13:03:47.627Z,6.80
2019-02-09T13:06:18.412Z,7.30
2019-02-09T13:08:50.183Z,6.50
2019-02-09T13:11:20.772Z,7.23
2019-02-09T13:14:00.086Z,7.90
2019-02-09T13:16:30.727Z,6.73
2019-02-09T13:19:01.355Z,7.40
2019-02-09T13:21:31.970Z,6.83
2019-02-09T13:24:02.520Z,7.37
2019-02-09T13:26:33.107Z,7.07
2019-02-09T13:29:03.632Z,6.87
2019-02-09T13:31:34.280Z,7.40
2019-02-09T13:34:04.994Z,7.87
2019-02-09T13:36:35.605Z,7.63
2019-02-09T13:39:09.228Z,6.37
2019-02-09T13:41:39.885Z,6.50
2019-02-09T13:44:10.508Z,7.83
2019-02-09T13:46:41.177Z,7.67
2019-02-09T13:49:11.695Z,7.50
2019-02-09T13:51:47.801Z,7.53
2019-02-09T13:54:18.335Z,8.73
2019-02-09T13:56:48.864Z,8.47
2019-02-09T13:59:19.442Z,8.73
2019-02-09T14:01:50.420Z,7.93
2019-02-09T14:04:21.250Z,9.17
2019-02-09T14:06:51.891Z,9.83
2019-02-09T14:09:22.611Z,9.97
2019-02-09T14:11:53.544Z,11.73
2019-02-09T14:14:24.270Z,8.50
2019-02-09T14:16:54.960Z,9.37
2019-02-09T14:19:25.724Z,9.03
2019-02-09T14:22:04.396Z,7.60
2019-02-09T14:24:34.949Z,7.47
2019-02-09T14:27:05.591Z,7.63
2019-02-09T14:29:36.182Z,7.90
2019-02-09T14:32:07.343Z,7.87
2019-02-09T14:34:38.075Z,8.47
2019-02-09T14:37:08.624Z,9.43
2019-02-09T14:39:39.231Z,9.03
2019-02-09T14:42:09.825Z,9.27
2019-02-09T14:44:40.346Z,11.00
2019-02-09T14:47:11.000Z,9.93
2019-02-09T14:49:41.609Z,10.67
2019-02-09T14:52:12.247Z,10.67
2019-02-09T14:54:43.291Z,11.73
2019-02-09T14:57:13.849Z,15.77
2019-02-09T14:59:44.390Z,13.63
2019-02-09T15:02:15.021Z,14.00
2019-02-09T15:04:45.700Z,11.70
2019-02-09T15:07:16.390Z,11.93
2019-02-09T15:09:47.145Z,9.77
2019-02-09T15:12:17.673Z,8.17
2019-02-09T15:14:48.391Z,8.80
2019-02-09T15:17:18.900Z,9.60
2019-02-09T15:19:49.451Z,8.90
2019-02-09T15:22:20.130Z,8.93
2019-02-09T15:24:53.861Z,9.77
2019-02-09T15:27:25.558Z,9.90
2019-02-09T15:29:56.383Z,12.03
2019-02-09T15:32:26.959Z,11.70
2019-02-09T15:34:57.624Z,12.40
2019-02-09T15:37:28.220Z,12.13
2019-02-09T15:39:58.830Z,13.07
2019-02-09T15:42:29.522Z,13.00
2019-02-09T15:45:00.257Z,12.67
2019-02-09T15:47:31.016Z,10.97
2019-02-09T15:50:03.107Z,10.93
2019-02-09T15:52:33.851Z,10.80
2019-02-09T15:55:04.606Z,7.77
2019-02-09T15:57:35.242Z,7.63
2019-02-09T16:00:12.827Z,6.90
2019-02-09T16:02:44.776Z,6.03
2019-02-09T16:05:15.665Z,6.43
2019-02-09T16:07:46.230Z,5.90
2019-02-09T16:10:19.160Z,8.60
2019-02-09T16:12:51.108Z,8.00
2019-02-09T16:15:26.896Z,6.87
2019-02-09T16:17:59.415Z,6.83
2019-02-09T16:20:30.546Z,8.20
2019-02-09T16:23:01.179Z,7.70
2019-02-09T16:25:32.991Z,6.10
2019-02-09T16:28:05.724Z,7.30
2019-02-09T16:30:36.471Z,7.47
2019-02-09T16:33:07.350Z,7.97
2019-02-09T16:35:39.275Z,7.33
2019-02-09T16:38:09.999Z,7.63
2019-02-09T16:40:40.661Z,7.20
2019-02-09T16:43:13.706Z,7.10
2019-02-09T16:45:44.766Z,7.07
2019-02-09T16:48:15.841Z,7.13
2019-02-09T16:50:49.405Z,7.13
2019-02-09T16:53:22.625Z,8.00
2019-02-09T16:55:56.817Z,7.80
2019-02-09T16:58:27.428Z,8.00
2019-02-09T17:01:05.283Z,7.63
2019-02-09T17:03:35.115Z,8.00
2019-02-09T17:06:06.106Z,8.10
2019-02-09T17:08:44.114Z,8.53
2019-02-09T17:11:14.737Z,8.17
2019-02-09T17:13:45.268Z,7.83
2019-02-09T17:16:16.247Z,8.17
2019-02-09T17:18:47.012Z,8.03
2019-02-09T17:21:17.804Z,7.53
2019-02-09T17:23:48.562Z,9.60
2019-02-09T17:26:19.293Z,9.73
2019-02-09T17:28:51.037Z,8.87
2019-02-09T17:31:21.693Z,7.90
2019-02-09T17:33:53.891Z,7.83
2019-02-09T17:36:25.662Z,9.17
2019-02-09T17:38:56.399Z,9.20
2019-02-09T17:41:27.128Z,8.87
2019-02-09T17:44:01.287Z,8.87
2019-02-09T17:46:35.142Z,8.10
2019-02-09T17:49:05.781Z,7.93
2019-02-09T17:51:36.566Z,8.17
2019-02-09T17:54:07.310Z,7.63
2019-02-09T17:56:39.999Z,8.00
2019-02-09T17:59:10.439Z,8.43
2019-02-09T18:01:41.158Z,8.97
2019-02-09T18:04:14.583Z,9.03
2019-02-09T18:06:46.210Z,9.17
2019-02-09T18:09:19.014Z,8.93
2019-02-09T18:11:49.510Z,9.03
2019-02-09T18:14:23.430Z,9.10
2019-02-09T18:16:54.018Z,9.00
2019-02-09T18:19:25.904Z,9.23
2019-02-09T18:21:57.648Z,8.90
2019-02-09T18:24:29.346Z,9.07
2019-02-09T18:27:03.834Z,8.90
2019-02-09T18:29:37.641Z,8.40
2019-02-09T18:32:17.087Z,8.07
2019-02-09T18:34:56.819Z,7.90
2019-02-09T18:37:32.562Z,7.53
2019-02-09T18:40:12.569Z,8.03
2019-02-09T18:42:43.157Z,8.33
2019-02-09T18:45:21.652Z,8.53
2019-02-09T18:47:52.328Z,10.37
2019-02-09T18:50:30.534Z,11.60
2019-02-09T18:53:03.747Z,12.00
2019-02-09T18:55:34.339Z,10.73
2019-02-09T18:58:06.275Z,10.27
2019-02-09T19:00:45.619Z,11.00
2019-02-09T19:03:19.129Z,10.10
2019-02-09T19:05:56.502Z,8.40
2019-02-09T19:08:28.363Z,8.87
2019-02-09T19:11:00.489Z,9.30
2019-02-09T19:13:38.326Z,8.73
2019-02-09T19:16:09.314Z,8.63
2019-02-09T19:18:40.021Z,9.47
2019-02-09T19:21:17.971Z,9.83
2019-02-09T19:23:48.815Z,10.17
2019-02-09T19:26:23.685Z,11.87
2019-02-09T19:28:58.984Z,12.07
2019-02-09T19:31:30.028Z,11.47
2019-02-09T19:34:04.738Z,10.80
2019-02-09T19:36:36.579Z,10.90
2019-02-09T19:39:14.257Z,9.87
2019-02-09T19:41:50.124Z,8.93
2019-02-09T19:44:22.029Z,9.50
2019-02-09T19:46:55.867Z,9.30
2019-02-09T19:49:30.984Z,9.80
2019-02-09T19:52:08.370Z,10.87
2019-02-09T19:54:36.472Z,11.40
2019-02-09T19:57:10.175Z,13.62
2019-02-09T19:59:42.594Z,9.57
2019-02-09T20:02:21.056Z,9.50
2019-02-09T20:04:57.108Z,8.20
2019-02-09T20:07:32.067Z,8.00
2019-02-09T20:10:03.546Z,7.40
2019-02-09T20:12:35.727Z,7.47
2019-02-09T20:15:10.179Z,6.23
2019-02-09T20:17:45.363Z,6.97
2019-02-09T20:20:23.160Z,6.87
2019-02-09T20:22:53.826Z,6.87
2019-02-09T20:25:29.290Z,7.73
2019-02-09T20:28:04.294Z,7.40
2019-02-09T20:30:38.931Z,6.80
2019-02-09T20:33:12.117Z,6.87
2019-02-09T20:35:49.925Z,8.37
2019-02-09T20:38:21.812Z,8.13
2019-02-09T20:40:59.281Z,6.47
2019-02-09T20:43:34.321Z,7.93
2019-02-09T20:46:05.304Z,7.10
2019-02-09T20:48:36.160Z,7.53
2019-02-09T20:51:07.052Z,6.83
2019-02-09T20:53:41.300Z,7.83
2019-02-09T20:56:12.491Z,6.60
2019-02-09T20:58:45.322Z,6.80
2019-02-09T21:01:17.099Z,7.27
2019-02-09T21:03:48.962Z,7.03
2019-02-09T21:06:20.148Z,6.30
2019-02-09T21:08:51.101Z,6.40
2019-02-09T21:11:26.342Z,6.30
2019-02-09T21:13:56.877Z,7.17
2019-02-09T21:16:27.486Z,6.77
2019-02-09T21:19:01.265Z,6.47
2019-02-09T21:21:37.845Z,6.27
2019-02-09T21:24:08.496Z,6.80
2019-02-09T21:26:43.417Z,6.43
2019-02-09T21:29:15.200Z,7.20
2019-02-09T21:31:50.039Z,6.93
2019-02-09T21:34:20.740Z,7.47
2019-02-09T21:36:52.512Z,6.67
2019-02-09T21:39:33.726Z,6.27
2019-02-09T21:42:06.113Z,5.70
2019-02-09T21:44:40.048Z,6.53
2019-02-09T21:47:18.903Z,5.67
2019-02-09T21:49:51.980Z,5.90
2019-02-09T21:52:26.905Z,5.47
2019-02-09T21:54:58.586Z,5.47
2019-02-09T21:57:31.995Z,5.70
2019-02-09T22:00:06.643Z,5.70
2019-02-09T22:02:42.683Z,5.40
2019-02-09T22:05:12.357Z,4.93
2019-02-09T22:07:43.172Z,4.80
2019-02-09T22:10:18.827Z,5.30
2019-02-09T22:12:50.826Z,5.57
2019-02-09T22:15:24.195Z,5.47
2019-02-09T22:17:54.916Z,5.13
2019-02-09T22:20:25.900Z,5.23
2019-02-09T22:22:56.985Z,4.63
2019-02-09T22:25:27.711Z,4.97
2019-02-09T22:27:58.725Z,5.37
2019-02-09T22:30:30.228Z,4.80
2019-02-09T22:33:00.969Z,4.93
2019-02-09T22:35:31.964Z,5.30
2019-02-09T22:38:02.732Z,5.30
2019-02-09T22:40:36.054Z,6.13
2019-02-09T22:43:07.567Z,6.00
2019-02-09T22:45:38.455Z,5.77
2019-02-09T22:48:10.638Z,5.37
2019-02-09T22:50:46.960Z,7.00
2019-02-09T22:53:17.696Z,8.40
2019-02-09T22:55:48.496Z,9.63
2019-02-09T22:58:19.796Z,10.10
2019-02-09T23:01:16.142Z,8.43
2019-02-09T23:04:17.466Z,8.17
2019-02-09T23:07:03.552Z,8.90
2019-02-09T23:09:34.969Z,8.50
2019-02-09T23:12:05.621Z,8.03
2019-02-09T23:14:36.346Z,6.73
2019-02-09T23:17:07.039Z,6.50
2019-02-09T23:19:38.202Z,6.67
2019-02-09T23:22:11.688Z,6.13
2019-02-09T23:24:42.518Z,5.57
2019-02-09T23:27:13.567Z,6.13
2019-02-09T23:29:44.519Z,5.87
2019-02-09T23:32:15.723Z,6.20
2019-02-09T23:34:46.968Z,7.87
2019-02-09T23:37:17.523Z,8.53
2019-02-09T23:39:48.675Z,9.10
2019-02-09T23:42:19.320Z,7.40
2019-02-09T23:44:49.773Z,8.00
2019-02-09T23:47:20.535Z,7.70
2019-02-09T23:49:51.665Z,6.77
2019-02-09T23:52:22.394Z,7.63
2019-02-09T23:54:53.215Z,7.07
2019-02-09T23:57:23.905Z,6.40
2019-02-09T23:59:54.468Z,6.53
